Time;durP1;ratioP1;P1;durP2;ratioP2;P2;SDS_P1;SDS_P2;PMS_P1;PMS_P2;Temp;Humidity;BMP_temperature;BMP_pressure;BME280_temperature;BME280_humidity;BME280_pressure;Samples;Min_cycle;Max_cycle;Signal;HPM_P1;HPM_P2
2023/04/08 00:02:24;;;;;;;;;5.00;4.75;;;;;11.14;56.01;101602.19;4938020;28;45480;-59
2023/04/08 00:04:49;;;;;;;;;7.25;5.50;;;;;11.00;56.65;101607.53;4935934;28;45851;-60
2023/04/08 00:07:15;;;;;;;;;4.00;4.00;;;;;11.03;56.28;101603.53;4935630;28;45709;-60
2023/04/08 00:09:40;;;;;;;;;7.25;4.00;;;;;11.07;56.45;101608.47;4935616;28;45470;-60
2023/04/08 00:12:06;;;;;;;;;8.50;6.50;;;;;10.99;56.72;101594.81;4936144;28;45451;-61
2023/04/08 00:14:31;;;;;;;;;9.75;4.75;;;;;11.00;57.08;101604.78;4937211;28;45679;-60
2023/04/08 00:16:57;;;;;;;;;8.00;8.00;;;;;11.04;56.96;101603.34;4936676;28;45512;-61
2023/04/08 00:19:24;;;;;;;;;7.75;7.50;;;;;10.93;57.33;101610.19;4935081;28;45365;-60
2023/04/08 00:21:50;;;;;;;;;8.00;6.60;;;;;10.83;57.87;101609.63;4933625;28;45757;-61
2023/04/08 00:24:16;;;;;;;;;6.60;6.60;;;;;10.75;57.48;101591.38;4951706;28;45730;-63
2023/04/08 00:26:41;;;;;;;;;5.60;5.00;;;;;10.83;57.57;101612.38;4953235;28;46522;-62
2023/04/08 00:29:07;;;;;;;;;4.00;4.00;;;;;10.85;56.71;101596.56;4940205;28;45396;-61
2023/04/08 00:31:32;;;;;;;;;5.00;5.00;;;;;10.59;57.40;101562.25;4973386;28;45478;-61
2023/04/08 00:33:58;;;;;;;;;8.50;6.50;;;;;10.67;57.11;101573.13;4935795;28;45580;-58
2023/04/08 00:36:25;;;;;;;;;6.50;6.00;;;;;10.83;57.22;101601.38;4952552;28;47467;-59
2023/04/08 00:38:50;;;;;;;;;7.20;7.00;;;;;10.88;56.54;101618.16;4953112;28;45343;-63
2023/04/08 00:41:16;;;;;;;;;10.00;5.50;;;;;10.82;57.08;101611.53;4936255;28;45548;-61
2023/04/08 00:43:42;;;;;;;;;8.50;5.00;;;;;10.82;56.54;101608.78;4940001;28;45515;-62
2023/04/08 00:46:08;;;;;;;;;9.25;8.50;;;;;10.87;57.19;101616.44;4974514;28;45548;-62
2023/04/08 00:48:33;;;;;;;;;6.50;3.50;;;;;10.57;57.15;101564.34;4972867;28;45385;-62
2023/04/08 00:50:59;;;;;;;;;6.00;6.00;;;;;10.76;56.65;101619.69;4958574;28;45395;-60
2023/04/08 00:53:24;;;;;;;;;3.75;3.75;;;;;10.76;56.70;101620.53;4952104;28;45439;-61
2023/04/08 00:55:50;;;;;;;;;5.50;3.50;;;;;10.58;57.49;101620.94;4954276;28;46672;-61
2023/04/08 00:58:15;;;;;;;;;9.25;7.50;;;;;10.49;57.63;101619.34;4955610;28;45560;-60
2023/04/08 01:00:47;;;;;;;;;7.00;7.00;;;;;10.40;58.28;101611.16;4957794;28;45399;-62
2023/04/08 01:03:17;;;;;;;;;10.60;8.00;;;;;10.46;58.76;101625.22;4957560;28;45327;-65
2023/04/08 01:05:47;;;;;;;;;7.20;5.00;;;;;10.43;57.73;101612.72;4956435;28;45499;-62
2023/04/08 01:08:13;;;;;;;;;7.40;7.00;;;;;10.23;57.80;101584.94;4958337;28;45230;-62
2023/04/08 01:10:40;;;;;;;;;11.00;7.00;;;;;10.35;58.25;101602.66;4924939;28;45206;-62
2023/04/08 01:13:08;;;;;;;;;7.00;7.00;;;;;10.35;57.40;101610.03;4941428;28;45252;-61
2023/04/08 01:15:35;;;;;;;;;5.40;4.00;;;;;10.23;57.33;101601.41;4957225;28;46477;-61
2023/04/08 01:18:02;;;;;;;;;8.80;8.00;;;;;10.19;57.70;101605.59;4956737;28;45512;-60
2023/04/08 01:20:27;;;;;;;;;8.00;8.00;;;;;10.02;57.76;101575.56;4941118;28;45356;-62
2023/04/08 01:22:59;;;;;;;;;6.50;4.50;;;;;10.33;56.99;101623.09;4941223;28;45352;-62
2023/04/08 01:25:35;;;;;;;;;7.20;7.20;;;;;10.37;57.74;101622.53;4958185;28;46242;-62
2023/04/08 01:28:04;;;;;;;;;5.40;3.20;;;;;10.26;57.14;101623.00;4957929;28;45530;-62
2023/04/08 01:30:29;;;;;;;;;7.60;7.20;;;;;10.15;57.40;101605.94;4966584;28;45390;-60
2023/04/08 01:32:55;;;;;;;;;8.50;6.50;;;;;10.25;57.80;101611.16;4944199;28;46037;-62
2023/04/08 01:35:20;;;;;;;;;5.50;5.50;;;;;10.35;57.59;101627.34;4959667;28;47619;-62
2023/04/08 01:37:46;;;;;;;;;7.75;7.00;;;;;10.23;57.06;101615.13;4939735;28;45945;-62
2023/04/08 01:40:11;;;;;;;;;5.25;5.25;;;;;10.21;57.71;101625.44;4975045;28;45426;-62
2023/04/08 01:42:37;;;;;;;;;7.00;7.00;;;;;10.23;57.33;101623.34;4975994;28;45384;-62
2023/04/08 01:45:03;;;;;;;;;7.75;7.75;;;;;10.21;57.84;101623.56;4977077;28;46237;-62
2023/04/08 01:47:29;;;;;;;;;10.50;9.00;;;;;10.24;57.98;101617.69;4977193;28;45870;-62
2023/04/08 01:49:54;;;;;;;;;5.00;5.00;;;;;10.27;57.30;101619.22;4945294;28;45430;-62
2023/04/08 01:52:20;;;;;;;;;7.00;7.00;;;;;10.20;57.67;101616.38;4976880;28;45337;-62
2023/04/08 01:54:46;;;;;;;;;13.25;5.25;;;;;10.11;57.58;101603.78;4976556;28;45515;-62
2023/04/08 01:57:14;;;;;;;;;6.60;5.80;;;;;10.16;57.24;101624.09;4977742;28;45330;-61
2023/04/08 01:59:40;;;;;;;;;4.00;4.00;;;;;10.14;57.96;101619.88;4975954;28;45292;-62
2023/04/08 02:02:06;;;;;;;;;7.50;6.75;;;;;10.18;57.39;101615.69;4944135;28;45638;-62
2023/04/08 02:04:33;;;;;;;;;9.00;7.25;;;;;10.19;58.25;101622.88;4977283;28;46529;-62
2023/04/08 02:06:58;;;;;;;;;7.20;5.00;;;;;10.24;58.17;101617.69;4976752;28;45390;-61
2023/04/08 02:09:24;;;;;;;;;9.75;5.25;;;;;9.99;57.43;101590.50;4975819;28;45307;-61
2023/04/08 02:11:49;;;;;;;;;7.50;5.50;;;;;9.96;58.35;101593.66;4977863;28;45251;-63
2023/04/08 02:14:15;;;;;;;;;7.00;7.00;;;;;9.76;57.73;101576.88;4975480;28;46268;-62
2023/04/08 02:16:54;;;;;;;;;7.25;7.00;;;;;9.84;58.22;101611.59;4976914;28;45410;-62
2023/04/08 02:19:25;;;;;;;;;6.80;6.40;;;;;9.89;58.80;101620.13;4975579;28;45471;-61
2023/04/08 02:21:54;;;;;;;;;2.60;1.00;;;;;9.85;58.60;101607.81;4960223;28;45533;-61
2023/04/08 02:24:19;;;;;;;;;6.00;5.60;;;;;9.75;57.83;101587.00;4959337;28;45777;-61
2023/04/08 02:26:45;;;;;;;;;7.25;6.25;;;;;9.94;58.15;101619.56;4975682;28;45386;-63
2023/04/08 02:29:12;;;;;;;;;6.75;6.00;;;;;9.86;57.95;101618.59;4975504;28;45475;-62
2023/04/08 02:31:38;;;;;;;;;6.80;6.80;;;;;9.84;58.25;101611.59;4957353;28;45430;-63
2023/04/08 02:34:04;;;;;;;;;5.60;5.60;;;;;9.94;58.06;101620.41;4939979;28;45539;-62
2023/04/08 02:36:31;;;;;;;;;6.00;6.00;;;;;9.73;57.52;101564.38;4956397;28;46478;-62
2023/04/08 02:38:56;;;;;;;;;3.80;3.80;;;;;9.95;57.47;101610.28;4939971;28;45539;-62
2023/04/08 02:41:22;;;;;;;;;10.00;6.75;;;;;9.83;57.11;101582.47;4955740;28;45207;-62
2023/04/08 02:43:47;;;;;;;;;6.50;5.25;;;;;10.02;57.59;101616.72;4956906;28;47005;-62
2023/04/08 02:46:13;;;;;;;;;7.50;7.50;;;;;9.72;57.91;101564.59;4957010;28;45389;-62
2023/04/08 02:48:38;;;;;;;;;8.00;8.00;;;;;9.93;57.97;101624.16;4955549;28;45391;-62
2023/04/08 02:51:04;;;;;;;;;8.00;7.25;;;;;9.88;57.55;101616.50;4936710;28;45370;-62
2023/04/08 02:53:29;;;;;;;;;7.00;6.00;;;;;9.65;58.05;101575.44;4954417;28;45286;-62
2023/04/08 02:55:55;;;;;;;;;10.25;8.00;;;;;9.97;58.11;101616.44;4955727;28;45258;-62
2023/04/08 02:58:20;;;;;;;;;8.75;8.25;;;;;9.95;57.74;101610.28;4956182;28;45261;-61
2023/04/08 03:00:46;;;;;;;;;8.00;8.00;;;;;10.02;57.84;101619.47;4957166;28;45375;-62
2023/04/08 03:03:11;;;;;;;;;8.25;8.00;;;;;10.08;57.32;101620.63;4971246;28;46648;-63
2023/04/08 03:05:37;;;;;;;;;7.75;7.75;;;;;10.08;57.70;101618.72;4955088;28;45343;-63
2023/04/08 03:08:02;;;;;;;;;8.75;7.75;;;;;10.06;56.87;101614.44;4955380;28;45344;-63
2023/04/08 03:10:28;;;;;;;;;7.00;6.00;;;;;10.04;56.85;101617.41;4956815;28;45523;-60
2023/04/08 03:12:53;;;;;;;;;9.50;8.50;;;;;9.88;58.27;101622.00;4956739;28;45824;-62
2023/04/08 03:15:19;;;;;;;;;7.25;7.25;;;;;9.82;57.70;101614.50;4956440;28;45344;-62
2023/04/08 03:17:44;;;;;;;;;8.00;6.25;;;;;9.93;57.58;101628.81;4955359;28;45851;-64
2023/04/08 03:20:10;;;;;;;;;10.75;9.50;;;;;9.79;58.58;101627.75;4954516;28;45386;-62
2023/04/08 03:22:36;;;;;;;;;8.00;7.25;;;;;9.61;58.85;101620.72;4955077;28;45387;-62
2023/04/08 03:25:01;;;;;;;;;10.00;9.00;;;;;9.63;58.94;101618.63;4971451;28;45730;-62
2023/04/08 03:27:27;;;;;;;;;10.50;7.25;;;;;9.39;58.70;101606.81;4956575;28;45382;-62
2023/04/08 03:29:52;;;;;;;;;13.50;9.00;;;;;9.47;59.12;101614.13;4957684;28;45450;-62
2023/04/08 03:32:18;;;;;;;;;10.50;8.50;;;;;9.51;58.95;101615.47;4974283;28;45335;-63
2023/04/08 03:34:44;;;;;;;;;8.00;7.25;;;;;9.36;58.98;101597.06;4975518;28;45313;-62
2023/04/08 03:37:09;;;;;;;;;11.00;8.00;;;;;9.47;58.58;101616.88;4976036;28;45396;-62
2023/04/08 03:39:35;;;;;;;;;7.50;7.00;;;;;9.43;59.15;101624.59;4973682;28;45481;-60
2023/04/08 03:42:01;;;;;;;;;6.25;6.00;;;;;9.35;58.78;101614.53;4974379;28;45463;-63
2023/04/08 03:44:27;;;;;;;;;7.00;7.00;;;;;9.44;58.64;101626.31;4975862;28;45701;-63
2023/04/08 03:46:53;;;;;;;;;9.25;7.50;;;;;9.39;58.83;101627.91;4975900;28;45294;-62
2023/04/08 03:49:18;;;;;;;;;13.00;9.75;;;;;9.35;59.24;101633.72;4974407;28;45445;-63
2023/04/08 03:51:43;;;;;;;;;10.75;8.25;;;;;9.44;58.78;101626.31;4975811;28;46169;-62
2023/04/08 03:54:09;;;;;;;;;9.25;8.00;;;;;9.41;59.05;101634.91;4975316;28;45307;-62
2023/04/08 03:56:34;;;;;;;;;10.00;8.75;;;;;9.39;58.59;101628.72;4975830;28;45366;-62
2023/04/08 03:59:00;;;;;;;;;9.25;6.00;;;;;9.28;58.86;101620.97;4975444;28;45411;-63
2023/04/08 04:01:25;;;;;;;;;9.00;8.75;;;;;9.33;59.54;101640.41;4975405;28;46352;-62
2023/04/08 04:03:51;;;;;;;;;7.75;6.75;;;;;9.24;58.61;101633.31;4973924;28;45485;-61
2023/04/08 04:06:16;;;;;;;;;7.50;6.25;;;;;9.21;59.58;101648.22;4975125;28;45505;-62
2023/04/08 04:08:42;;;;;;;;;8.50;7.25;;;;;9.12;59.39;101625.50;4975698;28;45386;-62
2023/04/08 04:11:07;;;;;;;;;12.00;8.00;;;;;9.13;60.36;101632.66;4974187;28;46259;-61
2023/04/08 04:13:33;;;;;;;;;9.25;8.75;;;;;9.12;60.27;101630.97;4975634;28;45417;-61
2023/04/08 04:15:58;;;;;;;;;10.75;8.50;;;;;9.08;59.79;101632.38;4973585;28;45310;-61
2023/04/08 04:18:24;;;;;;;;;7.50;7.50;;;;;9.04;59.34;101609.13;4975463;28;45158;-62
2023/04/08 04:20:49;;;;;;;;;11.00;8.00;;;;;9.13;58.88;101623.63;4975083;28;45736;-61
2023/04/08 04:23:15;;;;;;;;;12.00;10.00;;;;;8.83;59.62;101580.50;4973767;28;45556;-61
2023/04/08 04:25:41;;;;;;;;;12.75;8.50;;;;;9.18;59.62;101627.50;4975561;28;45396;-61
2023/04/08 04:28:07;;;;;;;;;10.75;10.50;;;;;9.19;59.54;101631.94;4974088;28;45262;-61
2023/04/08 04:30:36;;;;;;;;;11.00;10.40;;;;;9.10;59.41;101635.78;4967063;28;45323;-62
2023/04/08 04:33:01;;;;;;;;;14.60;10.80;;;;;8.99;59.33;101634.31;4955712;28;45422;-62
2023/04/08 04:35:27;;;;;;;;;14.50;10.25;;;;;8.89;60.09;101640.00;4954380;28;45360;-62
2023/04/08 04:37:52;;;;;;;;;12.75;9.75;;;;;8.73;59.91;101605.34;4948549;28;45482;-62
2023/04/08 04:40:18;;;;;;;;;16.75;9.00;;;;;9.03;59.64;101641.09;4927869;28;46788;-62
2023/04/08 04:42:43;;;;;;;;;9.00;9.00;;;;;8.99;60.17;101638.91;4954021;28;45965;-62
2023/04/08 04:45:09;;;;;;;;;14.50;10.25;;;;;9.04;59.20;101647.44;4955439;28;45636;-62
2023/04/08 04:47:35;;;;;;;;;13.50;9.00;;;;;9.10;59.62;101646.75;4955289;28;45406;-62
2023/04/08 04:50:00;;;;;;;;;9.25;8.75;;;;;9.11;59.24;101642.97;4953401;28;47601;-62
2023/04/08 04:52:26;;;;;;;;;12.00;12.00;;;;;9.11;58.99;101640.22;4953846;28;45301;-61
2023/04/08 04:54:51;;;;;;;;;13.00;9.50;;;;;9.24;59.30;101660.69;4953944;28;45642;-62
2023/04/08 04:57:17;;;;;;;;;11.75;8.25;;;;;9.21;59.44;101664.66;4955244;28;45372;-61
2023/04/08 04:59:42;;;;;;;;;8.25;8.25;;;;;9.22;58.82;101667.22;4953668;28;47899;-61
2023/04/08 05:02:08;;;;;;;;;8.50;7.75;;;;;9.27;59.22;101668.53;4953950;28;45316;-61
2023/04/08 05:04:34;;;;;;;;;11.20;11.20;;;;;9.19;58.79;101666.72;4954885;28;45484;-61
2023/04/08 05:07:00;;;;;;;;;14.75;11.00;;;;;8.82;59.50;101634.38;4955158;28;45548;-62
2023/04/08 05:09:26;;;;;;;;;11.75;8.50;;;;;9.07;59.27;101675.34;4953227;28;45876;-62
2023/04/08 05:11:51;;;;;;;;;15.50;9.50;;;;;9.08;59.13;101674.28;4955110;28;45257;-62
2023/04/08 05:14:16;;;;;;;;;12.00;8.25;;;;;9.09;59.20;101662.31;4953628;28;45439;-62
2023/04/08 05:16:42;;;;;;;;;11.75;11.00;;;;;9.18;59.18;101685.03;4955421;28;45489;-62
2023/04/08 05:19:08;;;;;;;;;7.25;6.00;;;;;9.21;58.37;101678.34;4953669;28;45460;-62
2023/04/08 05:21:33;;;;;;;;;13.75;9.00;;;;;9.09;58.66;101665.03;4954698;28;45239;-62
2023/04/08 05:23:59;;;;;;;;;11.00;11.00;;;;;8.94;58.84;101643.06;4937756;28;45290;-63
2023/04/08 05:26:25;;;;;;;;;7.25;7.00;;;;;9.06;58.38;101659.06;4955092;28;45216;-63
2023/04/08 05:28:51;;;;;;;;;15.00;11.00;;;;;9.20;57.93;101687.59;4953335;28;46035;-63
2023/04/08 05:31:19;;;;;;;;;12.75;8.75;;;;;9.18;58.17;101686.94;4965556;28;45306;-62
2023/04/08 05:33:45;;;;;;;;;13.20;11.60;;;;;9.17;58.88;101686.06;4974332;28;45279;-62
2023/04/08 05:36:11;;;;;;;;;9.00;9.00;;;;;9.27;58.89;101695.94;4974715;28;45480;-62
2023/04/08 05:38:37;;;;;;;;;15.60;13.60;;;;;9.23;58.17;101687.22;4972533;28;46323;-62
2023/04/08 05:41:02;;;;;;;;;19.50;15.50;;;;;9.15;58.82;101676.31;4972519;28;45466;-62
2023/04/08 05:43:28;;;;;;;;;10.00;10.00;;;;;9.32;57.83;101702.59;4976407;28;45977;-63
2023/04/08 05:45:53;;;;;;;;;15.25;12.75;;;;;9.23;58.43;101706.41;4976545;28;45688;-61
2023/04/08 05:48:19;;;;;;;;;18.50;13.75;;;;;9.18;58.69;101706.09;4977839;28;45537;-61
2023/04/08 05:50:45;;;;;;;;;14.00;13.00;;;;;9.17;58.33;101707.97;4976039;28;45390;-61
2023/04/08 05:53:10;;;;;;;;;16.60;12.40;;;;;9.19;58.99;101716.03;4977791;28;45407;-62
2023/04/08 05:55:36;;;;;;;;;16.75;14.00;;;;;9.18;58.38;101709.69;4975762;28;45414;-62
2023/04/08 05:58:01;;;;;;;;;19.25;15.00;;;;;9.09;59.17;101695.16;4959456;28;45714;-62
2023/04/08 06:00:27;;;;;;;;;17.50;14.25;;;;;9.15;58.80;101714.66;4976920;28;45374;-62
2023/04/08 06:02:53;;;;;;;;;16.50;15.00;;;;;9.25;58.50;101723.53;4977563;28;45470;-63
2023/04/08 06:05:18;;;;;;;;;19.00;17.25;;;;;9.09;58.44;101684.22;4976533;28;45264;-62
2023/04/08 06:07:44;;;;;;;;;19.25;13.00;;;;;9.22;57.56;101700.09;4975404;28;45554;-62
2023/04/08 06:10:09;;;;;;;;;12.00;10.25;;;;;9.45;58.22;101725.81;4975509;28;45470;-62
2023/04/08 06:12:37;;;;;;;;;19.25;17.50;;;;;9.07;57.36;101664.38;4977030;28;45358;-62
2023/04/08 06:15:03;;;;;;;;;23.40;13.80;;;;;9.31;58.09;101720.06;4976016;28;45304;-63
2023/04/08 06:17:28;;;;;;;;;18.50;15.00;;;;;9.31;57.70;101730.16;4930562;28;47504;-62
2023/04/08 06:19:54;;;;;;;;;23.50;19.00;;;;;9.27;57.47;101731.53;4956369;28;45238;-62
2023/04/08 06:22:19;;;;;;;;;24.75;15.25;;;;;9.21;57.78;101719.44;4956415;28;45293;-62
2023/04/08 06:24:46;;;;;;;;;21.25;18.50;;;;;9.28;58.63;101725.91;4955616;28;45428;-62
2023/04/08 06:27:12;;;;;;;;;17.00;16.80;;;;;9.28;57.80;101727.78;4956116;28;46687;-62
2023/04/08 06:29:37;;;;;;;;;16.25;14.50;;;;;9.33;57.60;101739.06;4953036;28;45196;-62
2023/04/08 06:32:03;;;;;;;;;19.25;18.00;;;;;9.15;57.62;101710.06;4969538;28;45287;-61
2023/04/08 06:34:28;;;;;;;;;20.75;17.00;;;;;9.29;58.02;101738.56;4973853;28;45206;-62
2023/04/08 06:36:54;;;;;;;;;16.75;15.00;;;;;9.22;58.37;101748.53;4975546;28;46335;-62
2023/04/08 06:39:20;;;;;;;;;21.50;16.75;;;;;9.17;58.31;101745.47;4976179;28;45409;-63
2023/04/08 06:41:45;;;;;;;;;17.00;14.60;;;;;9.16;58.56;101750.09;4976610;28;45362;-62
2023/04/08 06:44:11;;;;;;;;;24.00;20.00;;;;;9.05;57.81;101726.69;4976755;28;45307;-62
2023/04/08 06:46:36;;;;;;;;;24.50;23.50;;;;;9.06;58.67;101761.25;4958587;28;45751;-62
2023/04/08 06:49:03;;;;;;;;;20.00;16.50;;;;;9.01;57.98;101768.31;4976548;28;45382;-62
2023/04/08 06:51:30;;;;;;;;;25.80;20.60;;;;;9.02;58.83;101767.28;4977049;28;45514;-62
2023/04/08 06:53:55;;;;;;;;;20.20;18.00;;;;;9.02;58.63;101770.00;4990936;28;45414;-62
2023/04/08 06:56:21;;;;;;;;;28.25;22.00;;;;;9.07;58.00;101771.19;4975671;28;46391;-61
2023/04/08 06:58:47;;;;;;;;;17.80;17.20;;;;;9.18;58.72;101780.91;4977150;28;45389;-63
2023/04/08 07:01:15;;;;;;;;;20.25;17.00;;;;;9.11;57.76;101774.41;4991959;28;45387;-63
2023/04/08 07:03:40;;;;;;;;;18.80;18.00;;;;;9.06;58.35;101771.34;4976259;28;45339;-62
2023/04/08 07:06:06;;;;;;;;;27.00;21.25;;;;;9.20;57.85;101773.38;4974804;28;47761;-62
2023/04/08 07:08:31;;;;;;;;;17.75;17.75;;;;;9.30;58.03;101788.72;4976381;28;45489;-63
2023/04/08 07:10:57;;;;;;;;;23.25;19.25;;;;;9.14;57.84;101762.25;4976842;28;45450;-63
2023/04/08 07:13:22;;;;;;;;;17.75;14.00;;;;;9.33;57.88;101789.22;4959804;28;45545;-61
2023/04/08 07:15:48;;;;;;;;;24.25;22.00;;;;;9.39;58.23;101789.56;4959350;28;48065;-62
2023/04/08 07:18:14;;;;;;;;;21.50;18.50;;;;;9.48;57.94;101783.84;4974701;28;45402;-63
2023/04/08 07:20:40;;;;;;;;;24.00;20.00;;;;;9.43;57.43;101790.88;4959212;28;45407;-63
2023/04/08 07:23:06;;;;;;;;;21.40;18.20;;;;;9.27;56.70;101756.19;4959206;28;45359;-61
2023/04/08 07:25:33;;;;;;;;;17.50;17.25;;;;;9.55;56.93;101803.16;4975285;28;45515;-62
2023/04/08 07:27:58;;;;;;;;;26.20;19.40;;;;;9.48;56.90;101774.78;4958839;28;45327;-63
2023/04/08 07:30:24;;;;;;;;;25.50;22.75;;;;;9.54;57.05;101800.63;4974832;28;45439;-61
2023/04/08 07:32:49;;;;;;;;;26.75;22.75;;;;;9.51;56.95;101799.09;4957114;28;45654;-63
2023/04/08 07:35:22;;;;;;;;;24.25;20.00;;;;;9.50;57.36;101797.38;4956338;28;45518;-63
2023/04/08 07:37:48;;;;;;;;;19.00;16.80;;;;;9.51;57.94;101800.97;4955167;28;45572;-63
2023/04/08 07:40:14;;;;;;;;;23.50;17.00;;;;;9.53;57.51;101796.16;4956150;28;45632;-63
2023/04/08 07:42:42;;;;;;;;;23.50;19.50;;;;;9.38;58.18;101801.56;4955475;28;45525;-64
2023/04/08 07:45:08;;;;;;;;;23.40;18.60;;;;;9.41;57.95;101801.19;4954891;28;46675;-64
2023/04/08 07:47:34;;;;;;;;;24.40;19.60;;;;;9.45;58.00;101806.13;4970811;28;45444;-63
2023/04/08 07:50:00;;;;;;;;;20.50;18.25;;;;;9.53;57.81;101810.72;4955221;28;45493;-63
2023/04/08 07:52:26;;;;;;;;;24.50;19.00;;;;;9.56;57.32;101804.03;4911207;28;45548;-63
2023/04/08 07:54:51;;;;;;;;;24.50;20.75;;;;;9.31;57.97;101769.38;4938357;28;46296;-62
2023/04/08 07:57:17;;;;;;;;;25.75;21.50;;;;;9.43;57.73;101782.66;4969415;28;45377;-63
2023/04/08 07:59:42;;;;;;;;;15.75;14.25;;;;;9.61;57.71;101813.41;4946386;28;45505;-62
2023/04/08 08:02:08;;;;;;;;;19.00;18.00;;;;;9.70;57.45;101814.22;4952109;28;45234;-61
2023/04/08 08:04:34;;;;;;;;;22.00;20.00;;;;;9.67;58.07;101817.34;4955737;28;47220;-62
2023/04/08 08:06:59;;;;;;;;;21.75;18.75;;;;;9.71;57.24;101801.38;4956473;28;45759;-64
2023/04/08 08:09:25;;;;;;;;;20.50;17.50;;;;;9.86;57.27;101812.41;4954266;28;45307;-62
2023/04/08 08:11:51;;;;;;;;;21.50;20.00;;;;;9.84;57.28;101798.03;4938413;28;45301;-63
2023/04/08 08:14:16;;;;;;;;;24.50;19.75;;;;;9.70;56.95;101778.59;4956054;28;46438;-63
2023/04/08 08:16:43;;;;;;;;;22.50;19.50;;;;;9.97;57.05;101822.16;4954313;28;46262;-61
2023/04/08 08:19:09;;;;;;;;;21.60;19.20;;;;;9.97;56.99;101814.75;4955414;28;45421;-61
2023/04/08 08:21:38;;;;;;;;;21.25;21.25;;;;;10.00;56.45;101797.06;4954819;28;45363;-61
2023/04/08 08:24:04;;;;;;;;;22.60;19.80;;;;;10.11;56.35;101821.34;4955088;28;47487;-62
2023/04/08 08:26:30;;;;;;;;;20.40;15.00;;;;;10.13;56.17;101822.00;4955162;28;45447;-61
2023/04/08 08:28:56;;;;;;;;;32.25;22.00;;;;;10.16;56.39;101812.56;4954773;28;45513;-61
2023/04/08 08:31:21;;;;;;;;;16.75;14.00;;;;;10.26;56.71;101826.03;4952939;28;45626;-60
2023/04/08 08:33:47;;;;;;;;;18.75;17.00;;;;;10.13;57.00;101799.19;4936540;28;46971;-61
2023/04/08 08:36:13;;;;;;;;;26.25;20.50;;;;;10.32;56.53;101828.06;4953608;28;45420;-60
2023/04/08 08:38:38;;;;;;;;;20.50;18.75;;;;;10.32;56.74;101819.81;4942526;28;45526;-61
2023/04/08 08:41:04;;;;;;;;;16.75;16.75;;;;;10.46;56.13;101828.31;4930535;28;45709;-60
2023/04/08 08:43:32;;;;;;;;;26.50;22.25;;;;;10.36;56.24;101809.31;4958853;28;45376;-62
2023/04/08 08:45:58;;;;;;;;;26.60;23.40;;;;;10.48;55.91;101821.59;4949492;28;45490;-62
2023/04/08 08:48:24;;;;;;;;;24.40;20.40;;;;;10.59;55.36;101812.06;4950376;28;45382;-62
2023/04/08 08:50:50;;;;;;;;;24.20;18.60;;;;;10.76;54.99;101822.88;4953703;28;45484;-62
2023/04/08 08:53:19;;;;;;;;;21.00;15.80;;;;;10.81;55.20;101812.19;4953551;28;45843;-62
2023/04/08 08:55:45;;;;;;;;;20.40;16.80;;;;;10.89;54.63;101828.59;4951391;28;45402;-61
2023/04/08 08:58:10;;;;;;;;;24.75;18.25;;;;;10.80;54.58;101808.63;4890789;28;45919;-61
2023/04/08 09:00:43;;;;;;;;;20.25;20.00;;;;;10.64;54.86;101779.44;4951109;28;45403;-62
2023/04/08 09:03:23;;;;;;;;;25.40;17.40;;;;;11.05;54.59;101818.47;4953153;28;45455;-61
2023/04/08 09:05:59;;;;;;;;;21.40;21.00;;;;;11.09;53.52;101819.78;4952320;28;45356;-61
2023/04/08 09:08:25;;;;;;;;;21.80;16.60;;;;;11.08;53.66;101829.09;4965874;28;45442;-60
2023/04/08 09:10:52;;;;;;;;;32.80;23.60;;;;;11.17;53.65;101829.84;4963750;28;45430;-61
2023/04/08 09:13:18;;;;;;;;;19.20;15.80;;;;;11.22;53.97;101835.63;4953373;28;46488;-61
2023/04/08 09:16:08;;;;;;;;;18.50;16.75;;;;;11.35;53.18;101829.47;4949793;28;45482;-61
2023/04/08 09:18:35;;;;;;;;;20.20;17.80;;;;;11.46;53.14;101822.63;4937259;28;45311;-62
2023/04/08 09:21:04;;;;;;;;;20.20;17.40;;;;;11.53;53.36;101818.09;4917232;28;45450;-62
2023/04/08 09:23:42;;;;;;;;;23.60;20.20;;;;;11.40;53.07;101810.50;4954512;28;46731;-60
2023/04/08 09:26:12;;;;;;;;;22.60;18.40;;;;;11.55;53.22;101826.13;4957559;28;45367;-62
2023/04/08 09:28:38;;;;;;;;;22.60;21.60;;;;;11.56;53.49;101825.06;4957973;28;45417;-61
2023/04/08 09:31:23;;;;;;;;;20.00;17.00;;;;;11.75;53.10;101832.72;4958978;28;45446;-62
2023/04/08 09:33:49;;;;;;;;;19.60;17.80;;;;;11.80;52.87;101832.16;4946525;28;47680;-61
2023/04/08 09:36:15;;;;;;;;;24.80;19.20;;;;;11.84;52.09;101825.19;4954418;28;45713;-61
2023/04/08 09:38:42;;;;;;;;;22.00;18.00;;;;;11.91;52.38;101828.88;4946243;28;45403;-61
2023/04/08 09:41:08;;;;;;;;;21.20;19.20;;;;;11.96;51.84;101830.22;4936534;28;45487;-61
2023/04/08 09:43:48;;;;;;;;;16.25;15.25;;;;;11.82;52.06;101793.44;4935667;28;45359;-62
2023/04/08 09:46:13;;;;;;;;;18.40;16.80;;;;;11.91;52.14;101800.53;4935825;28;45420;-60
2023/04/08 09:48:41;;;;;;;;;20.75;19.00;;;;;12.24;51.64;101833.09;4940985;28;45748;-61
2023/04/08 09:51:07;;;;;;;;;23.80;17.00;;;;;12.23;51.35;101811.25;4919813;28;45355;-61
2023/04/08 09:53:37;;;;;;;;;16.20;13.40;;;;;12.39;51.25;101830.22;4935540;28;46038;-61
2023/04/08 09:56:06;;;;;;;;;17.00;15.60;;;;;12.42;50.83;101840.00;4936238;28;45525;-62
2023/04/08 09:58:51;;;;;;;;;16.60;15.20;;;;;12.41;50.88;101832.78;4905088;28;45491;-63
2023/04/08 10:01:16;;;;;;;;;16.20;12.40;;;;;12.43;50.71;101825.22;4945122;28;45332;-63
2023/04/08 10:03:48;;;;;;;;;16.50;15.25;;;;;12.55;50.92;101831.88;4936130;28;45782;-62
2023/04/08 10:06:14;;;;;;;;;24.00;18.60;;;;;12.69;50.65;101831.97;4937464;28;45441;-62
2023/04/08 10:08:40;;;;;;;;;17.50;13.25;;;;;12.76;49.98;101838.41;4957214;28;45360;-61
2023/04/08 10:11:06;;;;;;;;;18.00;15.50;;;;;12.80;49.50;101836.94;4939884;28;45659;-62
2023/04/08 10:13:32;;;;;;;;;18.00;17.80;;;;;12.56;49.71;101796.94;4954137;28;46794;-63
2023/04/08 10:16:20;;;;;;;;;12.60;12.40;;;;;12.75;50.14;101844.94;4957298;28;45356;-63
2023/04/08 10:18:48;;;;;;;;;17.20;14.00;;;;;12.86;50.18;101835.31;4963348;28;45403;-64
2023/04/08 10:21:33;;;;;;;;;19.80;14.00;;;;;12.90;49.62;101839.34;4959406;28;45577;-64
2023/04/08 10:24:04;;;;;;;;;24.20;19.40;;;;;12.76;49.42;101798.97;4954778;28;48056;-63
2023/04/08 10:26:37;;;;;;;;;21.60;18.60;;;;;13.09;48.80;101834.19;4957344;28;45471;-65
2023/04/08 10:29:17;;;;;;;;;22.20;16.60;;;;;12.88;49.45;101797.38;4955772;28;45697;-64
2023/04/08 10:31:47;;;;;;;;;18.40;16.40;;;;;13.20;49.15;101836.38;4963092;28;45603;-63
2023/04/08 10:34:17;;;;;;;;;18.60;16.20;;;;;13.29;48.57;101823.28;4958175;28;45410;-64
2023/04/08 10:36:43;;;;;;;;;16.20;15.00;;;;;13.36;48.31;101820.53;4963339;28;45429;-63
2023/04/08 10:39:09;;;;;;;;;17.20;14.40;;;;;13.31;48.34;101804.63;4955730;28;45534;-62
2023/04/08 10:41:41;;;;;;;;;23.25;18.25;;;;;13.15;48.23;101789.28;4934702;28;45410;-63
2023/04/08 10:44:21;;;;;;;;;14.00;13.40;;;;;13.15;48.15;101768.06;4959356;28;46990;-62
2023/04/08 10:46:47;;;;;;;;;19.00;16.20;;;;;13.51;48.38;101801.13;4955416;28;45429;-61
2023/04/08 10:49:13;;;;;;;;;14.25;14.25;;;;;13.61;47.42;101793.31;4928688;28;45610;-65
2023/04/08 10:51:40;;;;;;;;;15.40;14.00;;;;;13.77;47.11;101796.78;4954470;28;45595;-59
2023/04/08 10:54:10;;;;;;;;;18.60;14.40;;;;;13.85;47.15;101792.97;4933104;28;45623;-59
2023/04/08 10:56:42;;;;;;;;;17.80;14.80;;;;;13.92;47.71;101794.69;4950302;28;45811;-60
2023/04/08 10:59:08;;;;;;;;;14.60;14.60;;;;;13.85;47.46;101771.75;4946455;28;45430;-61
2023/04/08 11:01:39;;;;;;;;;16.50;14.50;;;;;14.00;46.74;101801.94;4933136;28;45522;-62
2023/04/08 11:04:15;;;;;;;;;16.00;13.60;;;;;14.03;46.70;101775.81;4919585;28;45600;-61
2023/04/08 11:06:42;;;;;;;;;15.60;13.80;;;;;14.17;46.40;101788.59;4956004;28;45852;-63
2023/04/08 11:09:08;;;;;;;;;16.20;13.60;;;;;14.30;46.07;101784.97;4938147;28;45819;-57
2023/04/08 11:11:34;;;;;;;;;18.60;15.00;;;;;14.34;45.74;101783.50;4952537;28;45590;-63
2023/04/08 11:14:00;;;;;;;;;15.00;14.40;;;;;14.29;45.76;101772.22;4955131;28;48128;-61
2023/04/08 11:16:26;;;;;;;;;13.60;13.20;;;;;14.05;45.17;101716.56;4953259;28;45830;-64
2023/04/08 11:18:52;;;;;;;;;19.75;15.75;;;;;14.49;45.08;101774.13;4965498;28;45411;-61